createdAt,value
2017-09-10T00:00:14.537Z,15.40
2017-09-10T00:01:17.057Z,15.40
2017-09-10T00:02:20.350Z,15.20
2017-09-10T00:03:24.743Z,15.10
2017-09-10T00:04:28.038Z,15.00
2017-09-10T00:05:30.594Z,15.00
2017-09-10T00:06:37.998Z,14.60
2017-09-10T00:07:41.107Z,14.60
2017-09-10T00:08:43.625Z,14.30
2017-09-10T00:09:47.119Z,14.10
2017-09-10T00:10:49.659Z,14.40
2017-09-10T00:11:52.268Z,14.60
2017-09-10T00:12:54.803Z,14.60
2017-09-10T00:13:57.359Z,14.50
2017-09-10T00:14:59.909Z,14.30
2017-09-10T00:16:03.298Z,14.20
2017-09-10T00:17:05.799Z,14.10
2017-09-10T00:18:08.337Z,14.10
2017-09-10T00:19:10.975Z,14.10
2017-09-10T00:20:14.315Z,14.10
2017-09-10T00:21:17.595Z,14.20
2017-09-10T00:22:24.065Z,14.20
2017-09-10T00:23:26.597Z,14.00
2017-09-10T00:24:29.170Z,13.70
2017-09-10T00:25:36.982Z,13.40
2017-09-10T00:26:40.255Z,13.20
2017-09-10T00:27:43.631Z,12.90
2017-09-10T00:28:46.135Z,12.90
2017-09-10T00:29:49.590Z,12.60
2017-09-10T00:30:52.919Z,12.20
2017-09-10T00:31:55.461Z,12.20
2017-09-10T00:32:58.741Z,11.90
2017-09-10T00:34:06.420Z,11.70
2017-09-10T00:35:13.798Z,11.60
2017-09-10T00:36:16.351Z,11.60
2017-09-10T00:37:20.362Z,11.40
2017-09-10T00:38:23.646Z,11.30
2017-09-10T00:39:27.358Z,11.20
2017-09-10T00:40:30.713Z,11.20
2017-09-10T00:41:33.999Z,11.20
2017-09-10T00:42:37.310Z,11.30
2017-09-10T00:43:39.824Z,11.20
2017-09-10T00:44:46.310Z,11.20
2017-09-10T00:45:50.668Z,11.20
2017-09-10T00:46:53.186Z,11.10
2017-09-10T00:47:56.859Z,11.70
2017-09-10T00:48:59.373Z,11.70
2017-09-10T00:50:01.914Z,12.00
2017-09-10T00:51:06.368Z,13.00
2017-09-10T00:52:12.962Z,13.00
2017-09-10T00:53:15.492Z,13.30
2017-09-10T00:54:18.032Z,13.50
2017-09-10T00:55:22.218Z,13.30
2017-09-10T00:56:29.892Z,13.00
2017-09-10T00:57:32.475Z,13.00
2017-09-10T00:58:37.127Z,13.00
2017-09-10T00:59:39.665Z,13.00
2017-09-10T01:00:46.747Z,13.30
2017-09-10T01:01:50.307Z,13.30
2017-09-10T01:02:52.876Z,13.20
2017-09-10T01:03:56.199Z,12.70
2017-09-10T01:04:58.749Z,12.70
2017-09-10T01:06:01.290Z,12.50
2017-09-10T01:07:07.589Z,12.20
2017-09-10T01:08:10.118Z,12.00
2017-09-10T01:09:13.496Z,11.70
2017-09-10T01:10:16.643Z,11.70
2017-09-10T01:11:19.370Z,11.70
2017-09-10T01:12:23.538Z,11.60
2017-09-10T01:13:27.055Z,11.60
2017-09-10T01:14:35.591Z,11.40
2017-09-10T01:15:38.127Z,11.40
2017-09-10T01:16:41.391Z,11.40
2017-09-10T01:17:43.971Z,11.40
2017-09-10T01:18:47.278Z,11.90
2017-09-10T01:19:49.912Z,11.90
2017-09-10T01:20:53.267Z,11.80
2017-09-10T01:21:55.875Z,11.70
2017-09-10T01:22:59.226Z,11.40
2017-09-10T01:24:01.863Z,11.40
2017-09-10T01:25:08.775Z,11.50
2017-09-10T01:26:11.365Z,11.90
2017-09-10T01:27:14.746Z,12.90
2017-09-10T01:28:18.021Z,13.00
2017-09-10T01:29:21.352Z,13.00
2017-09-10T01:30:23.877Z,12.90
2017-09-10T01:31:27.202Z,12.60
2017-09-10T01:32:30.714Z,12.60
2017-09-10T01:33:33.241Z,12.70
2017-09-10T01:34:35.998Z,12.60
2017-09-10T01:35:38.535Z,12.70
2017-09-10T01:36:41.039Z,12.60
2017-09-10T01:37:43.571Z,12.50
2017-09-10T01:38:46.080Z,12.30
2017-09-10T01:39:48.615Z,12.10
2017-09-10T01:40:51.163Z,12.20
2017-09-10T01:41:54.431Z,12.30
2017-09-10T01:42:57.003Z,12.20
2017-09-10T01:43:59.568Z,12.20
2017-09-10T01:45:02.066Z,12.10
2017-09-10T01:46:05.809Z,11.70
2017-09-10T01:47:08.344Z,11.70
2017-09-10T01:48:10.879Z,11.80
2017-09-10T01:49:13.461Z,11.70
2017-09-10T01:50:16.023Z,11.70
2017-09-10T01:51:19.320Z,11.60
2017-09-10T01:52:21.865Z,11.60
2017-09-10T01:53:25.154Z,11.40
2017-09-10T01:54:27.831Z,11.40
2017-09-10T01:55:35.603Z,11.10
2017-09-10T01:56:38.998Z,10.90
2017-09-10T01:57:45.747Z,10.80
2017-09-10T01:58:49.139Z,10.60
2017-09-10T01:59:55.754Z,10.60
2017-09-10T02:00:58.306Z,10.50
2017-09-10T02:02:00.867Z,10.40
2017-09-10T02:03:03.704Z,10.40
2017-09-10T02:04:06.299Z,10.50
2017-09-10T02:05:09.737Z,10.50
2017-09-10T02:06:16.526Z,10.40
2017-09-10T02:07:19.917Z,10.60
2017-09-10T02:08:23.255Z,10.50
2017-09-10T02:09:26.592Z,10.50
2017-09-10T02:10:29.940Z,10.50
2017-09-10T02:11:32.535Z,10.50
2017-09-10T02:12:35.135Z,10.50
2017-09-10T02:13:38.235Z,10.40
2017-09-10T02:14:41.672Z,10.50
2017-09-10T02:15:44.950Z,10.50
2017-09-10T02:16:48.599Z,10.40
2017-09-10T02:17:51.167Z,10.40
2017-09-10T02:18:55.394Z,10.30
2017-09-10T02:19:57.946Z,10.20
2017-09-10T02:21:00.500Z,10.20
2017-09-10T02:22:03.913Z,10.10
2017-09-10T02:23:06.542Z,10.10
2017-09-10T02:24:09.070Z,10.10
2017-09-10T02:25:11.723Z,10.00
2017-09-10T02:26:14.226Z,10.00
2017-09-10T02:27:17.667Z,10.10
2017-09-10T02:28:21.802Z,10.10
2017-09-10T02:29:24.453Z,10.10
2017-09-10T02:30:27.023Z,10.50
2017-09-10T02:31:35.729Z,10.60
2017-09-10T02:32:42.931Z,10.60
2017-09-10T02:33:49.764Z,10.50
2017-09-10T02:34:52.304Z,10.60
2017-09-10T02:35:56.001Z,10.70
2017-09-10T02:36:59.028Z,10.70
2017-09-10T02:38:02.304Z,10.70
2017-09-10T02:39:05.579Z,10.60
2017-09-10T02:40:10.000Z,10.60
2017-09-10T02:41:12.651Z,10.60
2017-09-10T02:42:16.452Z,10.50
2017-09-10T02:43:19.764Z,10.30
2017-09-10T02:44:23.287Z,10.30
2017-09-10T02:45:33.029Z,10.60
2017-09-10T02:46:35.565Z,10.70
2017-09-10T02:47:38.093Z,10.90
2017-09-10T02:48:45.392Z,11.20
2017-09-10T02:49:49.063Z,11.20
2017-09-10T02:50:52.493Z,11.00
2017-09-10T02:51:55.023Z,11.00
2017-09-10T02:52:58.342Z,10.70
2017-09-10T02:54:03.799Z,10.70
2017-09-10T02:55:07.330Z,10.60
2017-09-10T02:56:09.883Z,10.50
2017-09-10T02:57:12.415Z,10.50
2017-09-10T02:58:14.935Z,10.30
2017-09-10T02:59:18.356Z,10.10
2017-09-10T03:00:20.911Z,10.10
2017-09-10T03:01:23.532Z,9.90
2017-09-10T03:02:26.945Z,9.80
2017-09-10T03:03:34.547Z,9.70
2017-09-10T03:04:41.083Z,9.60
2017-09-10T03:05:44.408Z,10.20
2017-09-10T03:06:51.120Z,10.20
2017-09-10T03:07:54.514Z,10.90
2017-09-10T03:08:57.943Z,11.10
2017-09-10T03:10:00.767Z,11.10
2017-09-10T03:11:04.252Z,11.30
2017-09-10T03:12:06.875Z,11.60
2017-09-10T03:13:12.323Z,11.50
2017-09-10T03:14:14.860Z,11.50
2017-09-10T03:15:17.409Z,11.40
2017-09-10T03:16:20.233Z,11.20
2017-09-10T03:17:23.680Z,11.00
2017-09-10T03:18:26.296Z,10.80
2017-09-10T03:19:28.807Z,10.60
2017-09-10T03:20:31.333Z,10.40
2017-09-10T03:21:33.839Z,10.30
2017-09-10T03:22:36.359Z,10.30
2017-09-10T03:23:38.867Z,10.20
2017-09-10T03:24:41.478Z,10.10
2017-09-10T03:25:44.050Z,10.10
2017-09-10T03:26:50.732Z,10.00
2017-09-10T03:27:54.039Z,10.00
2017-09-10T03:29:05.283Z,10.50
2017-09-10T03:30:07.846Z,10.50
2017-09-10T03:31:14.787Z,10.90
2017-09-10T03:32:17.279Z,11.00
2017-09-10T03:33:19.941Z,11.10
2017-09-10T03:34:22.454Z,11.30
2017-09-10T03:35:24.988Z,11.80
2017-09-10T03:36:27.549Z,12.10
2017-09-10T03:37:30.053Z,12.30
2017-09-10T03:38:32.612Z,12.40
2017-09-10T03:39:35.891Z,12.00
2017-09-10T03:40:39.589Z,11.80
2017-09-10T03:41:42.345Z,11.70
2017-09-10T03:42:45.916Z,11.30
2017-09-10T03:43:48.490Z,11.30
2017-09-10T03:44:51.739Z,11.10
2017-09-10T03:45:54.267Z,10.90
2017-09-10T03:46:57.541Z,10.40
2017-09-10T03:48:00.076Z,10.40
2017-09-10T03:49:03.552Z,10.30
2017-09-10T03:50:06.083Z,10.20
2017-09-10T03:51:09.714Z,10.00
2017-09-10T03:52:12.234Z,9.90
2017-09-10T03:53:14.847Z,9.80
2017-09-10T03:54:21.225Z,9.70
2017-09-10T03:55:23.841Z,9.70
2017-09-10T03:56:26.357Z,10.30
2017-09-10T03:57:33.272Z,11.00
2017-09-10T03:58:38.213Z,11.10
2017-09-10T03:59:42.143Z,11.10
2017-09-10T04:00:45.799Z,11.00
2017-09-10T04:01:48.323Z,10.90
2017-09-10T04:02:51.635Z,10.70
2017-09-10T04:03:54.977Z,10.60
2017-09-10T04:04:58.869Z,10.40
2017-09-10T04:06:01.565Z,10.30
2017-09-10T04:07:04.071Z,10.20
2017-09-10T04:08:07.335Z,10.30
2017-09-10T04:09:09.933Z,10.30
2017-09-10T04:10:13.424Z,10.90
2017-09-10T04:11:16.695Z,11.10
2017-09-10T04:12:19.667Z,11.00
2017-09-10T04:13:22.242Z,11.20
2017-09-10T04:14:24.888Z,11.40
2017-09-10T04:15:27.422Z,11.50
2017-09-10T04:16:30.688Z,12.00
2017-09-10T04:17:33.238Z,11.90
2017-09-10T04:18:36.001Z,11.90
2017-09-10T04:19:38.513Z,11.90
2017-09-10T04:20:41.990Z,12.40
2017-09-10T04:21:44.514Z,12.80
2017-09-10T04:22:47.040Z,13.40
2017-09-10T04:23:49.559Z,13.90
2017-09-10T04:24:52.088Z,14.00
2017-09-10T04:25:54.606Z,14.10
2017-09-10T04:26:58.840Z,14.00
2017-09-10T04:28:01.383Z,14.00
2017-09-10T04:29:04.640Z,13.70
2017-09-10T04:30:10.151Z,13.70
2017-09-10T04:31:16.688Z,13.50
2017-09-10T04:32:19.249Z,13.40
2017-09-10T04:33:23.153Z,13.40
2017-09-10T04:34:25.661Z,13.40
2017-09-10T04:35:28.419Z,13.20
2017-09-10T04:36:30.932Z,13.40
2017-09-10T04:37:34.242Z,13.40
2017-09-10T04:38:37.885Z,13.40
2017-09-10T04:39:40.461Z,13.60
2017-09-10T04:40:46.909Z,13.90
2017-09-10T04:41:49.438Z,13.90
2017-09-10T04:42:51.990Z,13.80
2017-09-10T04:43:55.260Z,13.60
2017-09-10T04:45:01.662Z,13.30
2017-09-10T04:46:04.186Z,13.10
2017-09-10T04:47:11.856Z,13.00
2017-09-10T04:48:19.478Z,13.00
2017-09-10T04:49:25.998Z,13.00
2017-09-10T04:50:30.296Z,13.10
2017-09-10T04:51:33.595Z,12.90
2017-09-10T04:52:37.034Z,13.00
2017-09-10T04:53:39.596Z,13.00
2017-09-10T04:54:45.958Z,12.90
2017-09-10T04:55:48.529Z,12.70
2017-09-10T04:56:51.095Z,12.70
2017-09-10T04:57:53.663Z,12.70
2017-09-10T04:58:56.209Z,12.60
2017-09-10T04:59:59.559Z,12.60
2017-09-10T05:01:02.088Z,12.80
2017-09-10T05:02:04.955Z,12.80
2017-09-10T05:03:08.022Z,12.60
2017-09-10T05:04:11.456Z,12.40
2017-09-10T05:05:14.822Z,12.60
2017-09-10T05:06:21.952Z,13.00
2017-09-10T05:07:24.548Z,13.00
2017-09-10T05:08:27.139Z,13.10
2017-09-10T05:09:31.438Z,13.20
2017-09-10T05:10:34.761Z,13.20
2017-09-10T05:11:38.368Z,13.60
2017-09-10T05:12:40.954Z,14.00
2017-09-10T05:13:43.502Z,14.10
2017-09-10T05:14:50.347Z,14.00
2017-09-10T05:15:52.866Z,13.90
2017-09-10T05:16:55.475Z,13.80
2017-09-10T05:17:58.817Z,13.50
2017-09-10T05:19:01.338Z,13.50
2017-09-10T05:20:03.914Z,13.40
2017-09-10T05:21:06.518Z,13.30
2017-09-10T05:22:09.063Z,13.30
2017-09-10T05:23:12.587Z,13.20
2017-09-10T05:24:15.144Z,13.20
2017-09-10T05:25:21.561Z,13.00
2017-09-10T05:26:28.503Z,13.60
2017-09-10T05:27:32.791Z,14.40
2017-09-10T05:28:36.078Z,14.50
2017-09-10T05:29:43.569Z,14.50
2017-09-10T05:30:46.864Z,14.70
2017-09-10T05:31:51.128Z,14.80
2017-09-10T05:32:54.471Z,15.30
2017-09-10T05:33:57.074Z,15.30
2017-09-10T05:35:00.346Z,15.40
2017-09-10T05:36:02.891Z,15.60
2017-09-10T05:37:07.014Z,16.00
2017-09-10T05:38:14.434Z,16.10
2017-09-10T05:39:17.279Z,16.10
2017-09-10T05:40:19.845Z,16.40
2017-09-10T05:41:25.442Z,16.70
2017-09-10T05:42:28.080Z,16.90
2017-09-10T05:43:30.712Z,17.00
2017-09-10T05:44:33.832Z,17.10
2017-09-10T05:45:37.964Z,17.20
2017-09-10T05:46:43.332Z,17.20
2017-09-10T05:47:51.926Z,17.30
2017-09-10T05:48:58.389Z,17.40
2017-09-10T05:50:01.458Z,17.60
2017-09-10T05:51:04.463Z,17.80
2017-09-10T05:52:08.043Z,18.10
2017-09-10T05:53:14.281Z,18.10
2017-09-10T05:54:21.076Z,18.30
2017-09-10T05:55:25.260Z,18.60
2017-09-10T05:56:28.472Z,18.60
2017-09-10T05:57:31.826Z,18.80
2017-09-10T05:58:34.595Z,18.80
2017-09-10T05:59:37.971Z,18.80
2017-09-10T06:00:41.267Z,18.90
2017-09-10T06:01:44.525Z,19.00
2017-09-10T06:02:48.161Z,19.10
2017-09-10T06:03:54.897Z,19.10
2017-09-10T06:04:58.684Z,19.20
2017-09-10T06:06:01.246Z,19.20
2017-09-10T06:07:04.794Z,19.20
2017-09-10T06:08:07.687Z,19.20
2017-09-10T06:09:10.705Z,19.20
2017-09-10T06:10:19.765Z,19.20
2017-09-10T06:11:27.031Z,19.30
2017-09-10T06:12:29.631Z,19.30
2017-09-10T06:13:33.468Z,19.30
2017-09-10T06:14:37.212Z,19.40
2017-09-10T06:15:43.382Z,19.60
2017-09-10T06:16:50.911Z,19.50
2017-09-10T06:17:59.858Z,19.60
2017-09-10T06:19:09.577Z,19.50
2017-09-10T06:20:14.303Z,19.50
2017-09-10T06:21:20.288Z,19.60
2017-09-10T06:22:28.093Z,19.60
2017-09-10T06:23:31.616Z,19.60
2017-09-10T06:24:38.869Z,19.60
2017-09-10T06:25:46.497Z,19.60
2017-09-10T06:26:50.485Z,19.50
2017-09-10T06:27:54.751Z,19.60
2017-09-10T06:28:58.787Z,19.60
2017-09-10T06:30:02.062Z,19.70
2017-09-10T06:31:05.402Z,20.00
2017-09-10T06:32:08.035Z,20.00
2017-09-10T06:33:15.799Z,20.50
2017-09-10T06:34:19.308Z,20.40
2017-09-10T06:35:21.995Z,20.70
2017-09-10T06:36:25.059Z,20.50
2017-09-10T06:37:28.533Z,20.20
2017-09-10T06:38:31.539Z,20.20
2017-09-10T06:39:39.329Z,20.10
2017-09-10T06:41:59.759Z,19.90
2017-09-10T06:43:05.041Z,19.70
2017-09-10T06:44:15.659Z,19.80
2017-09-10T06:45:20.308Z,19.90
2017-09-10T06:46:27.893Z,20.10
2017-09-10T06:47:30.843Z,20.10
2017-09-10T06:48:34.320Z,20.00
2017-09-10T06:49:38.472Z,19.90
2017-09-10T06:50:47.251Z,19.70
2017-09-10T06:52:00.230Z,19.70
2017-09-10T06:53:02.864Z,19.70
2017-09-10T06:54:10.855Z,19.80
2017-09-10T06:55:14.704Z,19.70
2017-09-10T06:56:24.075Z,19.80
2017-09-10T06:57:40.423Z,19.70
2017-09-10T06:58:49.143Z,19.30
2017-09-10T06:59:56.583Z,19.30
2017-09-10T07:00:59.272Z,19.20
2017-09-10T07:02:04.331Z,19.30
2017-09-10T07:03:08.537Z,19.30
2017-09-10T07:05:29.119Z,19.30
2017-09-10T07:06:37.181Z,19.20
2017-09-10T07:07:44.433Z,19.00
2017-09-10T07:10:04.985Z,19.00
2017-09-10T07:12:21.130Z,19.20
2017-09-10T07:14:43.742Z,19.00
2017-09-10T07:15:47.859Z,19.00
2017-09-10T07:16:52.450Z,19.10
2017-09-10T07:17:58.092Z,19.40
2017-09-10T07:19:05.683Z,19.30
2017-09-10T07:20:14.079Z,19.20
2017-09-10T07:21:22.602Z,19.20
2017-09-10T07:22:31.509Z,19.20
2017-09-10T07:23:49.236Z,19.30
2017-09-10T07:30:07.097Z,18.80
2017-09-10T07:31:34.266Z,18.90
2017-09-10T07:32:38.085Z,19.00
2017-09-10T07:36:08.779Z,19.10
2017-09-10T07:37:13.711Z,19.00
2017-09-10T07:44:20.487Z,18.70
2017-09-10T07:45:27.734Z,18.60
2017-09-10T07:52:12.670Z,19.00
2017-09-10T07:53:23.317Z,19.20
2017-09-10T07:54:29.505Z,19.20
2017-09-10T07:56:57.248Z,19.30
2017-09-10T07:58:04.519Z,19.20
2017-09-10T08:31:15.406Z,18.80
2017-09-10T08:43:39.553Z,18.80
2017-09-10T08:44:45.151Z,18.70
2017-09-10T08:45:50.259Z,18.60
2017-09-10T08:49:33.320Z,18.70
2017-09-10T08:50:40.431Z,18.60
2017-09-10T08:52:04.153Z,18.60
2017-09-10T08:53:17.617Z,18.50
2017-09-10T08:54:28.388Z,18.50
2017-09-10T08:58:22.035Z,18.60
2017-09-10T08:59:28.729Z,18.60
2017-09-10T09:00:52.424Z,18.60
2017-09-10T09:01:58.788Z,18.60
2017-09-10T09:04:14.999Z,18.70
2017-09-10T10:48:40.047Z,18.80
2017-09-10T10:49:42.122Z,19.00
2017-09-10T10:51:28.359Z,19.70
2017-09-10T10:52:30.852Z,19.70
2017-09-10T10:54:22.046Z,19.90
2017-09-10T10:55:45.572Z,20.50
2017-09-10T10:56:48.079Z,20.60
2017-09-10T10:57:50.577Z,20.30
2017-09-10T10:58:53.071Z,20.20
2017-09-10T10:59:55.567Z,20.00
2017-09-10T11:00:58.161Z,19.50
2017-09-10T11:02:00.736Z,19.30
2017-09-10T11:03:04.100Z,18.80
2017-09-10T11:04:06.661Z,18.80
2017-09-10T11:05:09.779Z,19.00
2017-09-10T11:06:12.368Z,18.90
2017-09-10T11:07:15.782Z,18.70
2017-09-10T11:08:18.370Z,18.70
2017-09-10T11:09:20.920Z,18.80
2017-09-10T11:10:24.199Z,19.20
2017-09-10T11:11:26.887Z,19.10
2017-09-10T11:12:29.532Z,19.00
2017-09-10T11:13:33.025Z,19.20
2017-09-10T11:14:36.192Z,19.30
2017-09-10T11:15:38.800Z,19.60
2017-09-10T11:16:41.288Z,19.70
2017-09-10T11:17:43.885Z,19.60
2017-09-10T11:18:46.390Z,19.60
2017-09-10T11:19:48.923Z,19.80
2017-09-10T11:20:51.652Z,20.10
2017-09-10T11:21:54.365Z,20.20
2017-09-10T11:22:57.093Z,20.10
2017-09-10T11:23:59.614Z,19.90
2017-09-10T11:25:02.118Z,19.80
2017-09-10T11:26:04.660Z,19.70
2017-09-10T11:27:07.924Z,19.40
2017-09-10T11:28:11.936Z,19.40
2017-09-10T11:29:14.481Z,19.50
2017-09-10T11:30:17.162Z,19.50
2017-09-10T11:31:19.677Z,19.50
2017-09-10T11:32:22.345Z,19.40
2017-09-10T11:33:24.915Z,19.70
2017-09-10T11:34:27.497Z,19.80
2017-09-10T11:35:30.172Z,19.90
2017-09-10T11:36:32.676Z,20.20
2017-09-10T11:37:35.267Z,20.30
2017-09-10T11:38:37.785Z,20.40
2017-09-10T11:39:40.313Z,20.50
2017-09-10T11:40:43.965Z,20.50
2017-09-10T11:41:46.509Z,20.50
2017-09-10T11:42:49.081Z,20.40
2017-09-10T11:43:51.643Z,20.40
2017-09-10T11:44:54.184Z,20.20
2017-09-10T11:45:57.473Z,19.60
2017-09-10T11:47:01.052Z,19.40
2017-09-10T11:48:03.547Z,19.40
2017-09-10T11:49:06.062Z,19.30
2017-09-10T11:50:09.303Z,19.30
2017-09-10T11:51:11.976Z,19.30
2017-09-10T11:52:14.497Z,19.30
2017-09-10T11:53:17.886Z,19.20
2017-09-10T11:54:21.204Z,19.30
2017-09-10T11:55:24.535Z,19.30
2017-09-10T11:56:28.188Z,19.40
2017-09-10T11:57:30.845Z,19.30
2017-09-10T11:58:33.977Z,19.50
2017-09-10T11:59:36.570Z,19.60
2017-09-10T12:00:39.996Z,19.70
2017-09-10T12:01:42.637Z,19.60
2017-09-10T12:02:45.815Z,19.60
2017-09-10T12:03:49.178Z,19.70
2017-09-10T12:04:51.712Z,19.70
2017-09-10T12:05:54.421Z,19.80
2017-09-10T12:06:57.685Z,19.90
2017-09-10T12:08:00.278Z,19.90
2017-09-10T12:09:03.600Z,19.70
2017-09-10T12:10:06.301Z,19.70
2017-09-10T12:11:08.795Z,19.70
2017-09-10T12:12:11.384Z,19.60
2017-09-10T12:13:14.180Z,19.50
2017-09-10T12:14:18.128Z,19.20
2017-09-10T12:15:20.903Z,19.10
2017-09-10T12:16:24.801Z,19.30
2017-09-10T12:17:28.395Z,19.50
2017-09-10T12:18:32.458Z,19.50
2017-09-10T12:19:35.021Z,19.50
2017-09-10T12:20:38.435Z,19.60
2017-09-10T12:21:41.009Z,19.60
2017-09-10T12:22:43.605Z,19.70
2017-09-10T12:23:46.152Z,19.90
2017-09-10T12:24:50.405Z,19.90
2017-09-10T12:25:52.917Z,19.90
2017-09-10T12:26:56.132Z,20.00
2017-09-10T12:27:59.135Z,20.00
2017-09-10T12:29:02.633Z,19.60
2017-09-10T12:30:05.285Z,19.40
2017-09-10T12:31:08.216Z,19.30
2017-09-10T12:32:13.020Z,19.50
2017-09-10T12:33:16.491Z,19.50
2017-09-10T12:34:19.110Z,19.70
2017-09-10T12:35:22.635Z,19.90
2017-09-10T12:36:25.200Z,20.10
2017-09-10T12:37:28.038Z,20.30
2017-09-10T12:38:31.463Z,19.70
2017-09-10T12:39:34.327Z,19.70
2017-09-10T12:40:37.350Z,19.80
2017-09-10T12:41:40.246Z,19.90
2017-09-10T12:42:44.472Z,20.10
2017-09-10T12:43:47.185Z,20.10
2017-09-10T12:44:50.821Z,20.10
2017-09-10T12:45:54.038Z,20.10
2017-09-10T12:46:56.908Z,20.00
2017-09-10T12:47:59.556Z,19.80
2017-09-10T12:49:03.812Z,19.70
2017-09-10T12:50:06.469Z,19.70
2017-09-10T12:51:09.643Z,20.00
2017-09-10T12:52:12.326Z,20.20
2017-09-10T12:53:14.827Z,20.50
2017-09-10T12:54:18.272Z,20.80
2017-09-10T12:55:21.045Z,20.80
2017-09-10T12:56:23.760Z,21.10
2017-09-10T12:57:27.256Z,21.60
2017-09-10T12:58:30.812Z,21.80
2017-09-10T12:59:33.310Z,21.80
2017-09-10T13:00:37.050Z,21.80
2017-09-10T13:01:39.933Z,21.80
2017-09-10T13:02:42.746Z,21.80
2017-09-10T13:03:46.746Z,21.60
2017-09-10T13:04:50.251Z,21.40
2017-09-10T13:05:53.275Z,21.40
2017-09-10T13:06:56.529Z,21.00
2017-09-10T13:07:59.357Z,20.80
2017-09-10T13:09:02.773Z,20.20
2017-09-10T13:10:05.428Z,20.20
2017-09-10T13:11:09.047Z,19.90
2017-09-10T13:12:12.559Z,19.70
2017-09-10T13:13:15.209Z,19.70
2017-09-10T13:14:17.738Z,19.60
2017-09-10T13:15:21.489Z,19.30
2017-09-10T13:16:24.101Z,19.30
2017-09-10T13:17:27.914Z,19.30
2017-09-10T13:18:31.192Z,19.40
2017-09-10T13:19:34.569Z,19.60
2017-09-10T13:20:38.015Z,19.60
2017-09-10T13:21:40.637Z,19.60
2017-09-10T13:22:44.217Z,19.70
2017-09-10T13:23:48.292Z,19.50
2017-09-10T13:24:51.585Z,19.40
2017-09-10T13:25:54.877Z,19.50
2017-09-10T13:26:58.169Z,19.60
2017-09-10T13:28:01.703Z,19.70
2017-09-10T13:29:04.268Z,19.70
2017-09-10T13:30:06.775Z,19.70
2017-09-10T13:31:09.811Z,19.50
2017-09-10T13:32:13.270Z,19.60
2017-09-10T13:33:17.595Z,19.60
2017-09-10T13:34:20.122Z,19.60
2017-09-10T13:35:23.415Z,19.50
2017-09-10T13:36:26.682Z,19.30
2017-09-10T13:37:30.633Z,19.20
2017-09-10T13:38:33.377Z,19.20
2017-09-10T13:39:36.664Z,19.30
2017-09-10T13:40:39.935Z,19.40
2017-09-10T13:41:43.201Z,19.60
2017-09-10T13:42:45.751Z,19.60
2017-09-10T13:43:48.236Z,19.80
2017-09-10T13:44:51.725Z,19.50
2017-09-10T13:45:54.296Z,19.50
2017-09-10T13:46:57.132Z,19.60
2017-09-10T13:47:59.630Z,19.80
2017-09-10T13:49:02.208Z,20.10
2017-09-10T13:50:06.345Z,20.60
2017-09-10T13:51:08.926Z,20.60
2017-09-10T13:52:12.202Z,20.70
2017-09-10T13:53:14.726Z,20.70
2017-09-10T13:54:17.985Z,20.50
2017-09-10T13:55:20.498Z,20.50
2017-09-10T13:56:23.807Z,20.40
2017-09-10T13:57:27.347Z,20.40
2017-09-10T13:58:30.626Z,20.20
2017-09-10T13:59:33.911Z,20.20
2017-09-10T14:00:37.196Z,20.40
2017-09-10T14:01:40.473Z,20.50
2017-09-10T14:02:43.784Z,20.60
2017-09-10T14:03:47.145Z,20.60
2017-09-10T14:04:51.156Z,20.60
2017-09-10T14:05:54.565Z,20.70
2017-09-10T14:06:57.403Z,20.70
2017-09-10T14:08:00.118Z,20.90
2017-09-10T14:09:02.625Z,20.90
2017-09-10T14:10:05.424Z,20.90
2017-09-10T14:11:08.847Z,20.10
2017-09-10T14:12:11.376Z,20.10
2017-09-10T14:13:14.636Z,20.20
2017-09-10T14:14:17.257Z,20.20
2017-09-10T14:15:19.779Z,20.20
2017-09-10T14:16:22.364Z,20.20
2017-09-10T14:17:25.649Z,20.30
2017-09-10T14:18:29.061Z,20.40
2017-09-10T14:19:31.643Z,20.40
2017-09-10T14:20:34.350Z,20.50
2017-09-10T14:21:36.886Z,20.60
2017-09-10T14:22:39.402Z,20.50
2017-09-10T14:23:42.857Z,20.40
2017-09-10T14:24:45.442Z,20.40
2017-09-10T14:25:48.035Z,20.00
2017-09-10T14:26:51.548Z,20.10
2017-09-10T14:27:54.227Z,20.10
2017-09-10T14:28:57.246Z,19.90
2017-09-10T14:30:01.351Z,19.70
2017-09-10T14:31:04.884Z,19.80
2017-09-10T14:32:07.566Z,19.80
2017-09-10T14:33:10.086Z,19.80
2017-09-10T14:34:13.386Z,19.80
2017-09-10T14:35:16.727Z,19.70
2017-09-10T14:36:20.269Z,19.70
2017-09-10T14:37:23.650Z,20.00
2017-09-10T14:38:26.958Z,20.10
2017-09-10T14:39:29.531Z,20.10
2017-09-10T14:40:32.105Z,20.10
2017-09-10T14:41:35.003Z,20.10
2017-09-10T14:42:38.054Z,20.00
2017-09-10T14:43:40.610Z,19.90
2017-09-10T14:44:43.153Z,19.80
2017-09-10T14:45:46.832Z,19.50
2017-09-10T14:46:50.160Z,19.50
2017-09-10T14:47:52.661Z,19.40
2017-09-10T14:48:55.213Z,19.40
2017-09-10T14:49:57.823Z,19.20
2017-09-10T14:51:01.116Z,19.00
2017-09-10T14:52:04.493Z,19.00
2017-09-10T14:53:07.812Z,19.00
2017-09-10T14:54:10.471Z,19.00
2017-09-10T14:55:13.053Z,19.10
2017-09-10T14:56:15.613Z,19.10
2017-09-10T14:57:18.162Z,19.20
2017-09-10T14:58:21.537Z,19.10
2017-09-10T14:59:24.972Z,19.20
2017-09-10T15:00:27.514Z,19.20
2017-09-10T15:01:30.036Z,19.20
2017-09-10T15:02:32.650Z,19.30
2017-09-10T15:03:35.293Z,19.20
2017-09-10T15:04:38.574Z,19.30
2017-09-10T15:05:41.949Z,19.20
2017-09-10T15:06:44.489Z,19.20
2017-09-10T15:07:47.136Z,19.20
2017-09-10T15:08:49.654Z,19.00
2017-09-10T15:09:53.175Z,18.90
2017-09-10T15:10:55.816Z,18.90
2017-09-10T15:11:59.260Z,18.70
2017-09-10T15:13:01.785Z,18.70
2017-09-10T15:14:05.128Z,18.60
2017-09-10T15:15:07.757Z,18.60
2017-09-10T15:16:10.306Z,18.50
2017-09-10T15:17:14.114Z,18.60
2017-09-10T15:18:16.638Z,18.40
2017-09-10T15:19:19.240Z,18.50
2017-09-10T15:20:21.851Z,18.60
2017-09-10T15:21:24.432Z,18.40
2017-09-10T15:22:27.015Z,18.50
2017-09-10T15:23:30.298Z,18.40
2017-09-10T15:24:33.689Z,18.50
2017-09-10T15:25:36.978Z,18.50
2017-09-10T15:26:40.446Z,18.60
2017-09-10T15:27:43.064Z,18.60
2017-09-10T15:28:46.555Z,18.50
2017-09-10T15:29:49.134Z,18.50
2017-09-10T15:30:51.732Z,18.60
2017-09-10T15:31:54.258Z,18.60
2017-09-10T15:32:57.592Z,18.70
2017-09-10T15:34:00.947Z,18.80
2017-09-10T15:35:03.621Z,18.80
2017-09-10T15:36:06.141Z,18.80
2017-09-10T15:37:09.551Z,19.00
2017-09-10T15:38:12.093Z,19.00
2017-09-10T15:39:15.508Z,19.00
2017-09-10T15:40:18.208Z,19.00
2017-09-10T15:41:21.911Z,19.00
2017-09-10T15:42:24.504Z,19.00
2017-09-10T15:43:27.912Z,18.90
2017-09-10T15:44:30.599Z,18.90
2017-09-10T15:45:33.229Z,19.00
2017-09-10T15:46:36.544Z,18.80
2017-09-10T15:47:39.207Z,18.80
2017-09-10T15:48:42.542Z,18.80
2017-09-10T15:49:45.337Z,18.80
2017-09-10T15:50:47.847Z,18.60
2017-09-10T15:51:50.518Z,18.60
2017-09-10T15:52:53.042Z,18.60
2017-09-10T15:53:56.509Z,18.40
2017-09-10T15:54:59.593Z,18.40
2017-09-10T15:56:03.744Z,18.40
2017-09-10T15:57:06.246Z,18.40
2017-09-10T15:58:08.900Z,18.40
2017-09-10T15:59:11.545Z,18.40
2017-09-10T16:00:14.252Z,18.40
2017-09-10T16:01:17.716Z,18.40
2017-09-10T16:02:20.313Z,18.40
2017-09-10T16:03:22.832Z,18.30
2017-09-10T16:04:26.423Z,18.30
2017-09-10T16:05:29.112Z,18.20
2017-09-10T16:06:31.768Z,18.20
2017-09-10T16:07:34.282Z,18.20
2017-09-10T16:08:36.798Z,18.10
2017-09-10T16:09:39.601Z,18.00
2017-09-10T16:10:42.701Z,18.00
2017-09-10T16:11:45.390Z,17.90
2017-09-10T16:12:48.412Z,17.90
2017-09-10T16:13:51.054Z,17.80
2017-09-10T16:14:54.418Z,17.80
2017-09-10T16:15:56.920Z,17.70
2017-09-10T16:16:59.633Z,17.70
2017-09-10T16:18:02.155Z,17.70
2017-09-10T16:19:04.800Z,17.70
2017-09-10T16:20:08.066Z,17.70
2017-09-10T16:21:12.168Z,17.70
2017-09-10T16:22:16.218Z,17.70
2017-09-10T16:23:18.833Z,17.70
2017-09-10T16:24:21.373Z,17.70
2017-09-10T16:25:24.058Z,17.80
2017-09-10T16:26:26.554Z,17.90
2017-09-10T16:27:29.933Z,17.90
2017-09-10T16:28:33.253Z,18.00
2017-09-10T16:29:35.895Z,18.00
2017-09-10T16:30:39.198Z,17.90
2017-09-10T16:31:41.854Z,17.80
2017-09-10T16:32:44.337Z,17.80
2017-09-10T16:33:47.288Z,17.80
2017-09-10T16:34:50.560Z,17.70
2017-09-10T16:35:54.947Z,17.70
2017-09-10T16:36:57.628Z,17.70
2017-09-10T16:38:00.177Z,17.60
2017-09-10T16:39:02.726Z,17.60
2017-09-10T16:40:05.516Z,17.60
2017-09-10T16:41:08.025Z,17.60
2017-09-10T16:42:12.454Z,17.60